sensor_id;sensor_type;location;lat;lon;timestamp;P1;durP1;ratioP1;P2;durP2;ratioP2
51618;SDS011;38518;53.164;5.430;2023-02-28T00:01:20;7.78;;;2.60;;
51618;SDS011;38518;53.164;5.430;2023-02-28T00:03:47;10.35;;;2.97;;
51618;SDS011;38518;53.164;5.430;2023-02-28T00:06:12;9.65;;;2.92;;
51618;SDS011;38518;53.164;5.430;2023-02-28T00:08:38;11.38;;;2.97;;
51618;SDS011;38518;53.164;5.430;2023-02-28T00:11:05;9.93;;;2.70;;
51618;SDS011;38518;53.164;5.430;2023-02-28T00:13:34;7.35;;;2.60;;
51618;SDS011;38518;53.164;5.430;2023-02-28T00:16:03;13.18;;;2.97;;
51618;SDS011;38518;53.164;5.430;2023-02-28T00:18:31;11.30;;;3.05;;
51618;SDS011;38518;53.164;5.430;2023-02-28T00:20:58;13.23;;;3.00;;
51618;SDS011;38518;53.164;5.430;2023-02-28T00:23:24;9.23;;;2.80;;
51618;SDS011;38518;53.164;5.430;2023-02-28T00:25:51;6.72;;;2.50;;
51618;SDS011;38518;53.164;5.430;2023-02-28T00:28:17;12.90;;;3.08;;
51618;SDS011;38518;53.164;5.430;2023-02-28T00:30:43;7.97;;;2.90;;
51618;SDS011;38518;53.164;5.430;2023-02-28T00:33:09;7.15;;;2.90;;
51618;SDS011;38518;53.164;5.430;2023-02-28T00:35:35;8.52;;;2.80;;
51618;SDS011;38518;53.164;5.430;2023-02-28T00:38:01;6.32;;;2.50;;
51618;SDS011;38518;53.164;5.430;2023-02-28T00:40:27;11.77;;;3.25;;
51618;SDS011;38518;53.164;5.430;2023-02-28T00:42:53;10.63;;;3.13;;
51618;SDS011;38518;53.164;5.430;2023-02-28T00:45:19;9.40;;;3.38;;
51618;SDS011;38518;53.164;5.430;2023-02-28T00:47:45;7.00;;;2.92;;
51618;SDS011;38518;53.164;5.430;2023-02-28T00:50:14;14.57;;;3.13;;
51618;SDS011;38518;53.164;5.430;2023-02-28T00:52:44;10.60;;;2.97;;
51618;SDS011;38518;53.164;5.430;2023-02-28T00:55:10;10.77;;;2.90;;
51618;SDS011;38518;53.164;5.430;2023-02-28T00:57:36;9.35;;;3.40;;
51618;SDS011;38518;53.164;5.430;2023-02-28T01:00:02;8.07;;;2.83;;
51618;SDS011;38518;53.164;5.430;2023-02-28T01:02:29;10.30;;;3.17;;
51618;SDS011;38518;53.164;5.430;2023-02-28T01:04:55;8.93;;;3.15;;
51618;SDS011;38518;53.164;5.430;2023-02-28T01:07:22;9.52;;;2.70;;
51618;SDS011;38518;53.164;5.430;2023-02-28T01:09:48;14.80;;;3.20;;
51618;SDS011;38518;53.164;5.430;2023-02-28T01:12:14;10.63;;;3.17;;
51618;SDS011;38518;53.164;5.430;2023-02-28T01:14:39;9.57;;;3.15;;
51618;SDS011;38518;53.164;5.430;2023-02-28T01:17:05;7.95;;;2.97;;
51618;SDS011;38518;53.164;5.430;2023-02-28T01:19:31;9.20;;;2.42;;
51618;SDS011;38518;53.164;5.430;2023-02-28T01:21:59;11.63;;;3.05;;
51618;SDS011;38518;53.164;5.430;2023-02-28T01:24:26;11.02;;;2.80;;
51618;SDS011;38518;53.164;5.430;2023-02-28T01:26:52;9.00;;;2.83;;
51618;SDS011;38518;53.164;5.430;2023-02-28T01:29:17;7.18;;;2.60;;
51618;SDS011;38518;53.164;5.430;2023-02-28T01:31:43;10.20;;;2.85;;
51618;SDS011;38518;53.164;5.430;2023-02-28T01:34:09;13.15;;;2.85;;
51618;SDS011;38518;53.164;5.430;2023-02-28T01:36:34;8.75;;;2.50;;
51618;SDS011;38518;53.164;5.430;2023-02-28T01:39:01;9.63;;;2.20;;
51618;SDS011;38518;53.164;5.430;2023-02-28T01:41:31;8.63;;;2.58;;
51618;SDS011;38518;53.164;5.430;2023-02-28T01:44:04;8.90;;;2.35;;
51618;SDS011;38518;53.164;5.430;2023-02-28T01:46:52;9.68;;;2.45;;
51618;SDS011;38518;53.164;5.430;2023-02-28T01:49:18;7.30;;;2.30;;
51618;SDS011;38518;53.164;5.430;2023-02-28T01:51:48;8.13;;;2.00;;
51618;SDS011;38518;53.164;5.430;2023-02-28T01:54:26;11.80;;;2.53;;
51618;SDS011;38518;53.164;5.430;2023-02-28T01:56:57;7.65;;;2.30;;
51618;SDS011;38518;53.164;5.430;2023-02-28T01:59:38;6.07;;;2.30;;
51618;SDS011;38518;53.164;5.430;2023-02-28T02:02:12;6.53;;;1.83;;
51618;SDS011;38518;53.164;5.430;2023-02-28T02:04:40;8.52;;;2.30;;
51618;SDS011;38518;53.164;5.430;2023-02-28T02:07:16;8.27;;;1.88;;
51618;SDS011;38518;53.164;5.430;2023-02-28T02:09:42;10.00;;;1.80;;
51618;SDS011;38518;53.164;5.430;2023-02-28T02:15:20;6.53;;;1.88;;
51618;SDS011;38518;53.164;5.430;2023-02-28T02:17:52;10.52;;;3.35;;
51618;SDS011;38518;53.164;5.430;2023-02-28T02:20:32;6.32;;;2.20;;
51618;SDS011;38518;53.164;5.430;2023-02-28T02:25:53;4.53;;;2.30;;
51618;SDS011;38518;53.164;5.430;2023-02-28T02:31:39;5.93;;;2.53;;
51618;SDS011;38518;53.164;5.430;2023-02-28T02:37:24;4.85;;;2.15;;
51618;SDS011;38518;53.164;5.430;2023-02-28T02:43:01;7.35;;;2.30;;
51618;SDS011;38518;53.164;5.430;2023-02-28T02:45:37;6.35;;;2.70;;
51618;SDS011;38518;53.164;5.430;2023-02-28T02:48:10;5.05;;;2.30;;
51618;SDS011;38518;53.164;5.430;2023-02-28T02:50:51;5.47;;;2.20;;
51618;SDS011;38518;53.164;5.430;2023-02-28T02:53:24;7.65;;;2.35;;
51618;SDS011;38518;53.164;5.430;2023-02-28T02:55:55;8.02;;;2.63;;
51618;SDS011;38518;53.164;5.430;2023-02-28T02:58:26;6.68;;;2.13;;
51618;SDS011;38518;53.164;5.430;2023-02-28T03:00:57;7.07;;;2.20;;
51618;SDS011;38518;53.164;5.430;2023-02-28T03:03:26;9.77;;;2.30;;
51618;SDS011;38518;53.164;5.430;2023-02-28T03:05:56;4.90;;;2.35;;
51618;SDS011;38518;53.164;5.430;2023-02-28T03:08:24;7.97;;;2.53;;
51618;SDS011;38518;53.164;5.430;2023-02-28T03:10:52;7.95;;;2.30;;
51618;SDS011;38518;53.164;5.430;2023-02-28T03:13:34;7.80;;;2.63;;
51618;SDS011;38518;53.164;5.430;2023-02-28T03:24:50;9.88;;;3.65;;
51618;SDS011;38518;53.164;5.430;2023-02-28T03:27:29;7.07;;;3.67;;
51618;SDS011;38518;53.164;5.430;2023-02-28T03:30:00;10.20;;;3.45;;
51618;SDS011;38518;53.164;5.430;2023-02-28T03:32:57;8.30;;;3.28;;
51618;SDS011;38518;53.164;5.430;2023-02-28T03:35:37;7.38;;;2.78;;
51618;SDS011;38518;53.164;5.430;2023-02-28T03:38:18;4.28;;;2.60;;
51618;SDS011;38518;53.164;5.430;2023-02-28T03:40:53;7.28;;;2.45;;
51618;SDS011;38518;53.164;5.430;2023-02-28T03:43:28;8.68;;;3.03;;
51618;SDS011;38518;53.164;5.430;2023-02-28T03:45:59;9.13;;;3.05;;
51618;SDS011;38518;53.164;5.430;2023-02-28T03:48:44;9.55;;;2.85;;
51618;SDS011;38518;53.164;5.430;2023-02-28T03:51:15;7.38;;;2.47;;
51618;SDS011;38518;53.164;5.430;2023-02-28T03:53:50;8.00;;;2.40;;
51618;SDS011;38518;53.164;5.430;2023-02-28T03:56:30;7.80;;;2.13;;
51618;SDS011;38518;53.164;5.430;2023-02-28T03:59:07;8.45;;;2.20;;
51618;SDS011;38518;53.164;5.430;2023-02-28T04:01:40;7.78;;;1.95;;
51618;SDS011;38518;53.164;5.430;2023-02-28T04:04:10;7.20;;;2.40;;
51618;SDS011;38518;53.164;5.430;2023-02-28T04:06:38;5.30;;;2.35;;
51618;SDS011;38518;53.164;5.430;2023-02-28T04:09:05;7.38;;;1.88;;
51618;SDS011;38518;53.164;5.430;2023-02-28T04:11:33;6.22;;;1.80;;
51618;SDS011;38518;53.164;5.430;2023-02-28T04:14:05;8.55;;;2.25;;
51618;SDS011;38518;53.164;5.430;2023-02-28T04:16:33;7.25;;;2.28;;
51618;SDS011;38518;53.164;5.430;2023-02-28T04:19:00;4.75;;;1.80;;
51618;SDS011;38518;53.164;5.430;2023-02-28T04:21:28;10.38;;;2.33;;
51618;SDS011;38518;53.164;5.430;2023-02-28T04:23:54;5.47;;;1.75;;
51618;SDS011;38518;53.164;5.430;2023-02-28T04:26:20;4.93;;;1.40;;
51618;SDS011;38518;53.164;5.430;2023-02-28T04:28:46;5.80;;;1.40;;
51618;SDS011;38518;53.164;5.430;2023-02-28T04:31:12;5.50;;;2.03;;
51618;SDS011;38518;53.164;5.430;2023-02-28T04:33:37;7.50;;;1.60;;
51618;SDS011;38518;53.164;5.430;2023-02-28T04:36:04;7.90;;;1.65;;
51618;SDS011;38518;53.164;5.430;2023-02-28T04:38:33;4.15;;;1.67;;
51618;SDS011;38518;53.164;5.430;2023-02-28T04:41:00;9.30;;;1.73;;
51618;SDS011;38518;53.164;5.430;2023-02-28T04:43:27;7.85;;;1.92;;
51618;SDS011;38518;53.164;5.430;2023-02-28T04:45:54;7.30;;;1.60;;
51618;SDS011;38518;53.164;5.430;2023-02-28T04:48:24;9.93;;;2.13;;
51618;SDS011;38518;53.164;5.430;2023-02-28T04:50:52;7.93;;;1.73;;
51618;SDS011;38518;53.164;5.430;2023-02-28T04:53:18;5.65;;;1.25;;
51618;SDS011;38518;53.164;5.430;2023-02-28T04:55:44;6.25;;;1.33;;
51618;SDS011;38518;53.164;5.430;2023-02-28T04:58:11;9.15;;;1.65;;
51618;SDS011;38518;53.164;5.430;2023-02-28T05:00:37;6.18;;;1.50;;
51618;SDS011;38518;53.164;5.430;2023-02-28T05:03:03;9.95;;;1.67;;
51618;SDS011;38518;53.164;5.430;2023-02-28T05:05:29;6.88;;;1.52;;
51618;SDS011;38518;53.164;5.430;2023-02-28T05:07:55;7.60;;;1.90;;
51618;SDS011;38518;53.164;5.430;2023-02-28T05:10:24;11.05;;;2.03;;
51618;SDS011;38518;53.164;5.430;2023-02-28T05:12:50;10.85;;;2.13;;
51618;SDS011;38518;53.164;5.430;2023-02-28T05:15:16;7.05;;;2.55;;
51618;SDS011;38518;53.164;5.430;2023-02-28T05:17:42;7.90;;;2.13;;
51618;SDS011;38518;53.164;5.430;2023-02-28T05:20:08;7.28;;;2.42;;
51618;SDS011;38518;53.164;5.430;2023-02-28T05:22:38;8.93;;;1.80;;
51618;SDS011;38518;53.164;5.430;2023-02-28T05:25:05;6.18;;;1.65;;
51618;SDS011;38518;53.164;5.430;2023-02-28T05:27:32;5.18;;;1.70;;
51618;SDS011;38518;53.164;5.430;2023-02-28T05:29:58;7.95;;;2.33;;
51618;SDS011;38518;53.164;5.430;2023-02-28T05:32:24;7.53;;;2.20;;
51618;SDS011;38518;53.164;5.430;2023-02-28T05:34:50;7.45;;;2.65;;
51618;SDS011;38518;53.164;5.430;2023-02-28T05:37:15;7.80;;;2.30;;
51618;SDS011;38518;53.164;5.430;2023-02-28T05:39:42;9.05;;;1.95;;
51618;SDS011;38518;53.164;5.430;2023-02-28T05:42:09;9.10;;;1.85;;
51618;SDS011;38518;53.164;5.430;2023-02-28T05:44:35;7.88;;;1.80;;
51618;SDS011;38518;53.164;5.430;2023-02-28T05:47:01;7.20;;;2.45;;
51618;SDS011;38518;53.164;5.430;2023-02-28T05:49:27;6.97;;;1.70;;
51618;SDS011;38518;53.164;5.430;2023-02-28T05:51:53;6.15;;;1.70;;
51618;SDS011;38518;53.164;5.430;2023-02-28T05:54:19;11.07;;;2.30;;
51618;SDS011;38518;53.164;5.430;2023-02-28T05:56:45;7.80;;;2.28;;
51618;SDS011;38518;53.164;5.430;2023-02-28T05:59:11;8.55;;;1.77;;
51618;SDS011;38518;53.164;5.430;2023-02-28T06:01:42;5.88;;;1.75;;
51618;SDS011;38518;53.164;5.430;2023-02-28T06:04:13;9.07;;;2.28;;
51618;SDS011;38518;53.164;5.430;2023-02-28T06:06:46;9.02;;;1.80;;
51618;SDS011;38518;53.164;5.430;2023-02-28T06:09:13;8.82;;;2.20;;
51618;SDS011;38518;53.164;5.430;2023-02-28T06:11:39;8.07;;;2.72;;
51618;SDS011;38518;53.164;5.430;2023-02-28T06:14:05;10.40;;;2.65;;
51618;SDS011;38518;53.164;5.430;2023-02-28T06:16:32;11.65;;;2.63;;
51618;SDS011;38518;53.164;5.430;2023-02-28T06:19:00;8.63;;;2.75;;
51618;SDS011;38518;53.164;5.430;2023-02-28T06:21:28;8.63;;;2.28;;
51618;SDS011;38518;53.164;5.430;2023-02-28T06:23:54;8.35;;;2.90;;
51618;SDS011;38518;53.164;5.430;2023-02-28T06:26:21;10.40;;;2.58;;
51618;SDS011;38518;53.164;5.430;2023-02-28T06:28:47;9.52;;;2.63;;
51618;SDS011;38518;53.164;5.430;2023-02-28T06:31:13;8.02;;;2.20;;
51618;SDS011;38518;53.164;5.430;2023-02-28T06:33:41;13.15;;;2.65;;
51618;SDS011;38518;53.164;5.430;2023-02-28T06:36:08;9.00;;;3.80;;
51618;SDS011;38518;53.164;5.430;2023-02-28T06:38:35;14.38;;;3.35;;
51618;SDS011;38518;53.164;5.430;2023-02-28T06:41:02;11.55;;;3.67;;
51618;SDS011;38518;53.164;5.430;2023-02-28T06:43:29;10.15;;;3.55;;
51618;SDS011;38518;53.164;5.430;2023-02-28T06:45:57;11.07;;;3.83;;
51618;SDS011;38518;53.164;5.430;2023-02-28T06:48:25;10.93;;;3.90;;
51618;SDS011;38518;53.164;5.430;2023-02-28T06:50:51;7.95;;;3.35;;
51618;SDS011;38518;53.164;5.430;2023-02-28T06:53:17;13.00;;;3.55;;
51618;SDS011;38518;53.164;5.430;2023-02-28T06:55:43;8.60;;;3.33;;
51618;SDS011;38518;53.164;5.430;2023-02-28T06:58:09;8.95;;;3.83;;
51618;SDS011;38518;53.164;5.430;2023-02-28T07:00:43;10.02;;;3.55;;
51618;SDS011;38518;53.164;5.430;2023-02-28T07:03:10;11.88;;;3.58;;
51618;SDS011;38518;53.164;5.430;2023-02-28T07:05:38;7.32;;;2.90;;
51618;SDS011;38518;53.164;5.430;2023-02-28T07:08:04;8.60;;;2.53;;
51618;SDS011;38518;53.164;5.430;2023-02-28T07:10:32;10.95;;;3.10;;
51618;SDS011;38518;53.164;5.430;2023-02-28T07:12:58;9.43;;;2.97;;
51618;SDS011;38518;53.164;5.430;2023-02-28T07:15:25;9.68;;;3.78;;
51618;SDS011;38518;53.164;5.430;2023-02-28T07:17:51;11.60;;;3.50;;
51618;SDS011;38518;53.164;5.430;2023-02-28T07:20:16;14.65;;;3.72;;
51618;SDS011;38518;53.164;5.430;2023-02-28T07:22:42;7.88;;;2.65;;
51618;SDS011;38518;53.164;5.430;2023-02-28T07:25:08;10.40;;;3.33;;
51618;SDS011;38518;53.164;5.430;2023-02-28T07:27:34;12.20;;;3.50;;
51618;SDS011;38518;53.164;5.430;2023-02-28T07:30:00;8.70;;;5.72;;
51618;SDS011;38518;53.164;5.430;2023-02-28T07:32:27;9.80;;;7.47;;
51618;SDS011;38518;53.164;5.430;2023-02-28T07:34:53;7.63;;;5.88;;
51618;SDS011;38518;53.164;5.430;2023-02-28T07:37:19;9.75;;;8.02;;
51618;SDS011;38518;53.164;5.430;2023-02-28T07:39:45;11.77;;;8.38;;
51618;SDS011;38518;53.164;5.430;2023-02-28T07:42:12;10.88;;;9.30;;
51618;SDS011;38518;53.164;5.430;2023-02-28T07:44:38;8.65;;;7.55;;
51618;SDS011;38518;53.164;5.430;2023-02-28T07:47:09;9.52;;;8.05;;
51618;SDS011;38518;53.164;5.430;2023-02-28T07:49:35;11.18;;;10.07;;
51618;SDS011;38518;53.164;5.430;2023-02-28T07:52:02;12.32;;;10.07;;
51618;SDS011;38518;53.164;5.430;2023-02-28T07:54:29;10.93;;;7.70;;
51618;SDS011;38518;53.164;5.430;2023-02-28T07:56:55;10.18;;;7.95;;
51618;SDS011;38518;53.164;5.430;2023-02-28T07:59:24;8.90;;;8.00;;
51618;SDS011;38518;53.164;5.430;2023-02-28T08:01:50;14.52;;;11.25;;
51618;SDS011;38518;53.164;5.430;2023-02-28T08:04:17;12.10;;;9.35;;
51618;SDS011;38518;53.164;5.430;2023-02-28T08:06:43;12.70;;;9.13;;
51618;SDS011;38518;53.164;5.430;2023-02-28T08:09:09;13.27;;;10.23;;
51618;SDS011;38518;53.164;5.430;2023-02-28T08:11:34;11.63;;;8.85;;
51618;SDS011;38518;53.164;5.430;2023-02-28T08:14:01;12.13;;;10.13;;
51618;SDS011;38518;53.164;5.430;2023-02-28T08:16:27;10.98;;;9.48;;
51618;SDS011;38518;53.164;5.430;2023-02-28T08:18:52;12.45;;;10.77;;
51618;SDS011;38518;53.164;5.430;2023-02-28T08:21:18;11.80;;;8.68;;
51618;SDS011;38518;53.164;5.430;2023-02-28T08:23:48;12.38;;;9.52;;
51618;SDS011;38518;53.164;5.430;2023-02-28T08:26:15;12.65;;;10.63;;
51618;SDS011;38518;53.164;5.430;2023-02-28T08:28:41;14.43;;;10.15;;
51618;SDS011;38518;53.164;5.430;2023-02-28T08:31:08;10.63;;;9.18;;
51618;SDS011;38518;53.164;5.430;2023-02-28T08:33:35;11.38;;;10.27;;
51618;SDS011;38518;53.164;5.430;2023-02-28T08:36:01;11.63;;;10.10;;
51618;SDS011;38518;53.164;5.430;2023-02-28T08:38:27;13.13;;;11.73;;
51618;SDS011;38518;53.164;5.430;2023-02-28T08:40:59;10.20;;;9.02;;
51618;SDS011;38518;53.164;5.430;2023-02-28T08:43:27;11.27;;;10.18;;
51618;SDS011;38518;53.164;5.430;2023-02-28T08:45:54;11.82;;;10.73;;
51618;SDS011;38518;53.164;5.430;2023-02-28T08:48:22;10.85;;;9.38;;
51618;SDS011;38518;53.164;5.430;2023-02-28T08:50:58;10.70;;;9.70;;
51618;SDS011;38518;53.164;5.430;2023-02-28T08:53:26;10.80;;;9.75;;
51618;SDS011;38518;53.164;5.430;2023-02-28T08:55:56;11.88;;;10.77;;
51618;SDS011;38518;53.164;5.430;2023-02-28T08:58:26;11.93;;;10.73;;
51618;SDS011;38518;53.164;5.430;2023-02-28T09:00:53;11.48;;;9.02;;
51618;SDS011;38518;53.164;5.430;2023-02-28T09:03:19;10.65;;;9.55;;
51618;SDS011;38518;53.164;5.430;2023-02-28T09:08:37;13.10;;;11.80;;
51618;SDS011;38518;53.164;5.430;2023-02-28T09:11:04;12.48;;;10.30;;
51618;SDS011;38518;53.164;5.430;2023-02-28T09:13:31;12.70;;;10.80;;
51618;SDS011;38518;53.164;5.430;2023-02-28T09:16:01;11.98;;;9.40;;
51618;SDS011;38518;53.164;5.430;2023-02-28T09:18:28;14.18;;;12.85;;
51618;SDS011;38518;53.164;5.430;2023-02-28T09:20:54;14.00;;;12.35;;
51618;SDS011;38518;53.164;5.430;2023-02-28T09:23:20;15.07;;;12.38;;
51618;SDS011;38518;53.164;5.430;2023-02-28T09:25:47;17.75;;;15.55;;
51618;SDS011;38518;53.164;5.430;2023-02-28T09:28:18;16.98;;;12.75;;
51618;SDS011;38518;53.164;5.430;2023-02-28T09:30:45;15.63;;;12.38;;
51618;SDS011;38518;53.164;5.430;2023-02-28T09:33:13;15.65;;;13.98;;
51618;SDS011;38518;53.164;5.430;2023-02-28T09:35:39;16.23;;;12.13;;
51618;SDS011;38518;53.164;5.430;2023-02-28T09:38:05;15.85;;;12.05;;
51618;SDS011;38518;53.164;5.430;2023-02-28T09:40:35;16.70;;;12.45;;
51618;SDS011;38518;53.164;5.430;2023-02-28T09:43:22;15.52;;;11.60;;
51618;SDS011;38518;53.164;5.430;2023-02-28T09:46:00;15.23;;;11.65;;
51618;SDS011;38518;53.164;5.430;2023-02-28T09:48:40;15.20;;;13.63;;
51618;SDS011;38518;53.164;5.430;2023-02-28T09:51:12;14.23;;;11.13;;
51618;SDS011;38518;53.164;5.430;2023-02-28T09:53:58;14.57;;;11.85;;
51618;SDS011;38518;53.164;5.430;2023-02-28T09:56:25;12.05;;;10.80;;
51618;SDS011;38518;53.164;5.430;2023-02-28T10:04:03;12.70;;;10.15;;
51618;SDS011;38518;53.164;5.430;2023-02-28T10:06:50;10.48;;;9.43;;
51618;SDS011;38518;53.164;5.430;2023-02-28T10:11:48;9.15;;;7.50;;
51618;SDS011;38518;53.164;5.430;2023-02-28T10:14:27;10.52;;;8.13;;
51618;SDS011;38518;53.164;5.430;2023-02-28T10:16:55;9.80;;;8.35;;
51618;SDS011;38518;53.164;5.430;2023-02-28T10:19:56;10.07;;;9.18;;
51618;SDS011;38518;53.164;5.430;2023-02-28T10:23:13;10.52;;;8.65;;
51618;SDS011;38518;53.164;5.430;2023-02-28T10:25:22;9.48;;;8.65;;
51618;SDS011;38518;53.164;5.430;2023-02-28T10:27:54;10.00;;;9.10;;
51618;SDS011;38518;53.164;5.430;2023-02-28T10:30:26;8.50;;;7.60;;
51618;SDS011;38518;53.164;5.430;2023-02-28T10:32:52;10.25;;;7.30;;
51618;SDS011;38518;53.164;5.430;2023-02-28T10:35:23;8.10;;;7.30;;
51618;SDS011;38518;53.164;5.430;2023-02-28T10:37:52;6.45;;;5.85;;
51618;SDS011;38518;53.164;5.430;2023-02-28T10:45:24;7.75;;;6.10;;
51618;SDS011;38518;53.164;5.430;2023-02-28T10:47:53;6.80;;;5.72;;
51618;SDS011;38518;53.164;5.430;2023-02-28T10:56:24;5.95;;;5.35;;
51618;SDS011;38518;53.164;5.430;2023-02-28T10:58:52;6.63;;;5.95;;
51618;SDS011;38518;53.164;5.430;2023-02-28T11:01:43;6.63;;;5.95;;
51618;SDS011;38518;53.164;5.430;2023-02-28T11:04:33;6.43;;;5.82;;
51618;SDS011;38518;53.164;5.430;2023-02-28T11:09:45;6.07;;;5.47;;
51618;SDS011;38518;53.164;5.430;2023-02-28T11:13:00;6.80;;;5.70;;
51618;SDS011;38518;53.164;5.430;2023-02-28T11:15:05;7.38;;;5.40;;
51618;SDS011;38518;53.164;5.430;2023-02-28T11:20:37;5.82;;;5.22;;
51618;SDS011;38518;53.164;5.430;2023-02-28T11:23:04;5.63;;;4.95;;
51618;SDS011;38518;53.164;5.430;2023-02-28T11:25:38;5.57;;;4.97;;
51618;SDS011;38518;53.164;5.430;2023-02-28T11:28:05;6.50;;;5.53;;
51618;SDS011;38518;53.164;5.430;2023-02-28T11:31:22;5.85;;;5.15;;
51618;SDS011;38518;53.164;5.430;2023-02-28T11:38:56;7.50;;;5.50;;
51618;SDS011;38518;53.164;5.430;2023-02-28T11:50:26;6.80;;;6.03;;
51618;SDS011;38518;53.164;5.430;2023-02-28T11:53:22;6.78;;;6.18;;
51618;SDS011;38518;53.164;5.430;2023-02-28T11:55:53;7.13;;;5.85;;
51618;SDS011;38518;53.164;5.430;2023-02-28T12:12:47;5.38;;;4.65;;
51618;SDS011;38518;53.164;5.430;2023-02-28T12:15:28;4.50;;;4.10;;
51618;SDS011;38518;53.164;5.430;2023-02-28T12:26:22;4.82;;;3.78;;
51618;SDS011;38518;53.164;5.430;2023-02-28T12:28:59;3.75;;;3.30;;
51618;SDS011;38518;53.164;5.430;2023-02-28T12:31:38;3.90;;;3.00;;
51618;SDS011;38518;53.164;5.430;2023-02-28T12:34:12;5.18;;;3.60;;
51618;SDS011;38518;53.164;5.430;2023-02-28T12:36:46;3.58;;;3.28;;
51618;SDS011;38518;53.164;5.430;2023-02-28T12:39:27;4.45;;;3.88;;
51618;SDS011;38518;53.164;5.430;2023-02-28T12:42:13;5.40;;;3.28;;
51618;SDS011;38518;53.164;5.430;2023-02-28T12:47:46;3.50;;;3.20;;
51618;SDS011;38518;53.164;5.430;2023-02-28T12:50:16;4.38;;;3.08;;
51618;SDS011;38518;53.164;5.430;2023-02-28T12:55:35;3.72;;;3.08;;
51618;SDS011;38518;53.164;5.430;2023-02-28T13:09:04;4.45;;;2.72;;
51618;SDS011;38518;53.164;5.430;2023-02-28T13:19:35;3.45;;;2.90;;
51618;SDS011;38518;53.164;5.430;2023-02-28T13:24:54;3.58;;;2.60;;
51618;SDS011;38518;53.164;5.430;2023-02-28T13:27:31;4.07;;;2.85;;
51618;SDS011;38518;53.164;5.430;2023-02-28T13:29:59;2.63;;;2.13;;
51618;SDS011;38518;53.164;5.430;2023-02-28T13:32:34;3.80;;;2.40;;
51618;SDS011;38518;53.164;5.430;2023-02-28T13:39:55;2.85;;;2.35;;
51618;SDS011;38518;53.164;5.430;2023-02-28T13:47:34;3.72;;;2.38;;
51618;SDS011;38518;53.164;5.430;2023-02-28T14:02:11;3.13;;;2.50;;
51618;SDS011;38518;53.164;5.430;2023-02-28T14:07:03;3.85;;;2.42;;
51618;SDS011;38518;53.164;5.430;2023-02-28T14:11:55;4.45;;;2.88;;
51618;SDS011;38518;53.164;5.430;2023-02-28T14:17:05;2.92;;;2.50;;
51618;SDS011;38518;53.164;5.430;2023-02-28T14:19:42;3.28;;;2.40;;
51618;SDS011;38518;53.164;5.430;2023-02-28T14:22:32;3.40;;;2.80;;
51618;SDS011;38518;53.164;5.430;2023-02-28T14:25:32;4.25;;;2.42;;
51618;SDS011;38518;53.164;5.430;2023-02-28T14:36:42;4.18;;;2.72;;
51618;SDS011;38518;53.164;5.430;2023-02-28T14:41:42;4.07;;;2.63;;
51618;SDS011;38518;53.164;5.430;2023-02-28T14:44:25;4.60;;;2.80;;
51618;SDS011;38518;53.164;5.430;2023-02-28T14:46:54;3.17;;;2.65;;
51618;SDS011;38518;53.164;5.430;2023-02-28T14:54:57;3.13;;;2.83;;
51618;SDS011;38518;53.164;5.430;2023-02-28T14:57:57;4.97;;;2.85;;
51618;SDS011;38518;53.164;5.430;2023-02-28T15:00:25;4.10;;;2.75;;
51618;SDS011;38518;53.164;5.430;2023-02-28T15:02:51;3.45;;;2.90;;
51618;SDS011;38518;53.164;5.430;2023-02-28T15:05:21;4.25;;;3.20;;
51618;SDS011;38518;53.164;5.430;2023-02-28T15:08:01;4.00;;;2.90;;
51618;SDS011;38518;53.164;5.430;2023-02-28T15:10:39;3.85;;;2.85;;
51618;SDS011;38518;53.164;5.430;2023-02-28T15:13:14;3.90;;;2.80;;
51618;SDS011;38518;53.164;5.430;2023-02-28T15:21:12;3.53;;;2.60;;
51618;SDS011;38518;53.164;5.430;2023-02-28T15:23:42;3.05;;;2.67;;
51618;SDS011;38518;53.164;5.430;2023-02-28T15:26:19;3.20;;;2.35;;
51618;SDS011;38518;53.164;5.430;2023-02-28T15:28:54;3.85;;;2.67;;
51618;SDS011;38518;53.164;5.430;2023-02-28T15:31:31;3.15;;;2.60;;
51618;SDS011;38518;53.164;5.430;2023-02-28T15:34:06;3.28;;;2.75;;
51618;SDS011;38518;53.164;5.430;2023-02-28T15:36:40;3.17;;;2.65;;
51618;SDS011;38518;53.164;5.430;2023-02-28T15:39:19;4.43;;;2.78;;
51618;SDS011;38518;53.164;5.430;2023-02-28T15:41:47;3.00;;;2.50;;
51618;SDS011;38518;53.164;5.430;2023-02-28T15:44:13;3.10;;;2.58;;
51618;SDS011;38518;53.164;5.430;2023-02-28T15:47:11;3.25;;;2.58;;
51618;SDS011;38518;53.164;5.430;2023-02-28T15:52:26;2.95;;;2.58;;
51618;SDS011;38518;53.164;5.430;2023-02-28T15:54:56;3.53;;;3.05;;
51618;SDS011;38518;53.164;5.430;2023-02-28T15:57:27;3.22;;;2.50;;
51618;SDS011;38518;53.164;5.430;2023-02-28T16:00:01;4.13;;;2.60;;
51618;SDS011;38518;53.164;5.430;2023-02-28T16:02:35;5.78;;;3.35;;
51618;SDS011;38518;53.164;5.430;2023-02-28T16:05:16;3.72;;;2.90;;
51618;SDS011;38518;53.164;5.430;2023-02-28T16:07:53;3.33;;;2.85;;
51618;SDS011;38518;53.164;5.430;2023-02-28T16:10:26;3.92;;;3.00;;
51618;SDS011;38518;53.164;5.430;2023-02-28T16:12:54;6.30;;;3.25;;
51618;SDS011;38518;53.164;5.430;2023-02-28T16:15:25;5.60;;;3.60;;
51618;SDS011;38518;53.164;5.430;2023-02-28T16:17:54;4.07;;;3.45;;
51618;SDS011;38518;53.164;5.430;2023-02-28T16:20:27;5.18;;;3.63;;
51618;SDS011;38518;53.164;5.430;2023-02-28T16:22:54;4.25;;;3.30;;
51618;SDS011;38518;53.164;5.430;2023-02-28T16:25:27;4.65;;;3.72;;
51618;SDS011;38518;53.164;5.430;2023-02-28T16:28:08;5.07;;;3.90;;
51618;SDS011;38518;53.164;5.430;2023-02-28T16:30:42;4.18;;;3.15;;
51618;SDS011;38518;53.164;5.430;2023-02-28T16:33:08;4.55;;;3.17;;
51618;SDS011;38518;53.164;5.430;2023-02-28T16:35:34;6.53;;;4.50;;
51618;SDS011;38518;53.164;5.430;2023-02-28T16:38:00;5.20;;;3.67;;
51618;SDS011;38518;53.164;5.430;2023-02-28T16:43:44;4.88;;;4.22;;
51618;SDS011;38518;53.164;5.430;2023-02-28T16:46:11;4.72;;;3.70;;
51618;SDS011;38518;53.164;5.430;2023-02-28T16:48:38;4.70;;;4.18;;
51618;SDS011;38518;53.164;5.430;2023-02-28T16:51:05;5.30;;;3.80;;
51618;SDS011;38518;53.164;5.430;2023-02-28T16:53:36;5.53;;;4.13;;
51618;SDS011;38518;53.164;5.430;2023-02-28T16:56:02;6.07;;;4.28;;
51618;SDS011;38518;53.164;5.430;2023-02-28T16:58:34;6.65;;;4.47;;
51618;SDS011;38518;53.164;5.430;2023-02-28T17:01:07;5.18;;;4.43;;
51618;SDS011;38518;53.164;5.430;2023-02-28T17:03:39;6.75;;;4.45;;
51618;SDS011;38518;53.164;5.430;2023-02-28T17:06:16;8.10;;;6.60;;
51618;SDS011;38518;53.164;5.430;2023-02-28T17:08:53;11.43;;;10.23;;
51618;SDS011;38518;53.164;5.430;2023-02-28T17:11:24;9.77;;;8.85;;
51618;SDS011;38518;53.164;5.430;2023-02-28T17:13:51;10.05;;;9.05;;
51618;SDS011;38518;53.164;5.430;2023-02-28T17:16:31;10.73;;;9.65;;
51618;SDS011;38518;53.164;5.430;2023-02-28T17:18:59;9.77;;;8.88;;
51618;SDS011;38518;53.164;5.430;2023-02-28T17:21:30;7.82;;;6.97;;
51618;SDS011;38518;53.164;5.430;2023-02-28T17:23:59;8.10;;;6.82;;
51618;SDS011;38518;53.164;5.430;2023-02-28T17:26:27;9.18;;;6.40;;
51618;SDS011;38518;53.164;5.430;2023-02-28T17:28:55;8.35;;;6.38;;
51618;SDS011;38518;53.164;5.430;2023-02-28T17:31:22;7.80;;;6.72;;
51618;SDS011;38518;53.164;5.430;2023-02-28T17:33:49;7.18;;;6.47;;
51618;SDS011;38518;53.164;5.430;2023-02-28T17:36:16;7.80;;;6.95;;
51618;SDS011;38518;53.164;5.430;2023-02-28T17:38:51;29.40;;;26.30;;
51618;SDS011;38518;53.164;5.430;2023-02-28T17:41:18;25.02;;;22.48;;
51618;SDS011;38518;53.164;5.430;2023-02-28T17:43:44;17.30;;;15.80;;
51618;SDS011;38518;53.164;5.430;2023-02-28T17:46:19;16.60;;;14.40;;
51618;SDS011;38518;53.164;5.430;2023-02-28T17:48:54;18.85;;;17.25;;
51618;SDS011;38518;53.164;5.430;2023-02-28T17:51:23;20.70;;;18.70;;
51618;SDS011;38518;53.164;5.430;2023-02-28T17:53:49;18.65;;;16.77;;
51618;SDS011;38518;53.164;5.430;2023-02-28T17:56:22;14.82;;;13.30;;